CLT TRACON Summary / KCLT TAF
CLT TRACON Summary:
Expect VFR conditions under mostly clear skies across CLT TRACON. Surface winds will be from the northeast shifting southeast after 17z at 5-10kts. No significant flight hazards are expected in the TRACON airspace.

Updated:4/24/2014 6:30 AM
CLT Terminal Aerodrome Forecast:

FTUS42 KGSP 241100
TAFCLT
TAF
KCLT 241120Z 2412/2512 06006KT P6SM FEW250
     FM241700 16006KT P6SM FEW250
     FM250600 15006KT P6SM BKN050
     FM250800 15005KT P6SM BKN015=
CLT TRACON Area Remark:
None.
Convective Gate Forecast / Collaborative Convective Forecast Product / Vertical Wind Profile
Convective Gate Forecast
SIGMETS/ Southeast Radar & Satellite Loops (click on image to enlarge)

Southeast Radar Loop

 



USA.gov is the U.S. government's official web portal to all federal, state and local government web resources and services.